Time;durP1;ratioP1;P1;durP2;ratioP2;P2;SDS_P1;SDS_P2;PMS_P1;PMS_P2;Temp;Humidity;BMP_temperature;BMP_pressure;BME280_temperature;BME280_humidity;BME280_pressure;Samples;Min_cycle;Max_cycle;Signal;HPM_P1;HPM_P2
2022/01/11 19:00:14;;;;;;;;;75.33;62.67;;;;;0.86;83.31;103048.56;5090452;27;45337;-70
2022/01/11 19:02:40;;;;;;;;;80.67;60.33;;;;;0.91;82.31;103036.91;5068026;28;45809;-68
2022/01/11 19:05:08;;;;;;;;;77.33;59.00;;;;;1.22;82.89;103045.34;5065325;28;45287;-69
2022/01/11 19:07:35;;;;;;;;;73.00;55.67;;;;;1.50;80.98;103052.63;5061962;27;45610;-68
2022/01/11 19:10:03;;;;;;;;;75.67;57.00;;;;;1.54;79.65;103034.88;5070400;27;45449;-69
2022/01/11 19:12:30;;;;;;;;;79.67;61.33;;;;;1.82;80.43;103055.03;5070288;28;45945;-69
2022/01/11 19:14:58;;;;;;;;;77.33;57.00;;;;;1.76;79.11;103033.91;5067267;28;45391;-67
2022/01/11 19:17:33;;;;;;;;;77.33;57.00;;;;;1.93;79.31;103055.84;5068270;28;45677;-69
2022/01/11 19:20:04;;;;;;;;;80.67;59.67;;;;;2.14;78.93;103065.19;5110879;27;48086;-70
2022/01/11 19:22:32;;;;;;;;;75.33;58.00;;;;;2.30;77.96;103074.94;5052940;27;45416;-67
2022/01/11 19:25:00;;;;;;;;;86.67;66.00;;;;;2.35;77.59;103068.44;5066665;28;45539;-67
2022/01/11 19:27:31;;;;;;;;;72.00;56.00;;;;;2.42;77.35;103060.34;5072823;27;45503;-68
2022/01/11 19:30:00;;;;;;;;;79.67;59.33;;;;;2.45;77.21;103067.41;5061418;27;45475;-66
2022/01/11 19:32:27;;;;;;;;;75.00;57.33;;;;;2.53;77.06;103056.81;5069653;27;45469;-67
2022/01/11 19:34:55;;;;;;;;;73.67;55.33;;;;;2.44;76.13;103038.03;5069172;27;46155;-67
2022/01/11 19:37:23;;;;;;;;;75.33;58.00;;;;;2.45;77.39;103049.31;5066871;27;45720;-68
2022/01/11 19:39:54;;;;;;;;;76.33;56.67;;;;;2.41;75.80;103050.75;5072965;28;45372;-69
2022/01/11 19:42:28;;;;;;;;;74.33;57.00;;;;;2.33;75.90;103063.16;5073533;27;45899;-68
2022/01/11 19:44:56;;;;;;;;;74.67;54.67;;;;;2.25;76.39;103051.31;5071586;27;45272;-69
2022/01/11 19:47:22;;;;;;;;;139.25;121.25;;;;;2.17;75.96;103077.44;5067792;27;46027;-67
2022/01/11 19:49:50;;;;;;;;;85.33;69.67;;;;;2.15;76.41;103085.06;5069192;28;46295;-67
2022/01/11 19:52:17;;;;;;;;;87.00;70.33;;;;;2.21;76.53;103085.53;5072134;28;45483;-68
2022/01/11 19:54:49;;;;;;;;;77.67;58.67;;;;;2.19;75.95;103089.69;5070652;27;45543;-69
2022/01/11 19:57:15;;;;;;;;;80.00;62.67;;;;;2.16;76.05;103073.03;5071282;27;45569;-67
2022/01/11 19:59:45;;;;;;;;;77.33;58.67;;;;;2.36;76.07;103079.69;5083725;27;45519;-68
2022/01/11 20:02:11;;;;;;;;;79.33;57.33;;;;;2.48;75.53;103093.50;5086830;27;45605;-69
2022/01/11 20:04:37;;;;;;;;;79.00;61.67;;;;;2.43;75.47;103089.69;5087596;27;45464;-68
2022/01/11 20:07:03;;;;;;;;;78.33;58.00;;;;;1.96;76.17;103015.59;5089598;27;45680;-68
2022/01/11 20:09:29;;;;;;;;;75.67;57.00;;;;;2.41;75.51;103096.44;5091701;27;46402;-68
2022/01/11 20:11:59;;;;;;;;;74.33;56.33;;;;;2.33;75.85;103091.59;5076954;28;45465;-66
2022/01/11 20:14:27;;;;;;;;;79.67;56.67;;;;;2.10;75.86;103045.94;5061309;28;45710;-71
2022/01/11 20:16:53;;;;;;;;;69.33;54.33;;;;;2.18;75.20;103094.72;5057463;28;45594;-70
2022/01/11 20:19:19;;;;;;;;;76.67;55.00;;;;;2.15;75.72;103097.09;5073064;28;45433;-70
2022/01/11 20:27:16;;;;;;;;;74.00;59.00;;;;;2.07;75.82;103050.91;5072967;28;45363;-69
2022/01/11 20:29:45;;;;;;;;;79.67;60.67;;;;;2.44;74.89;103105.28;5092486;27;46405;-68
2022/01/11 20:32:12;;;;;;;;;79.00;56.00;;;;;2.43;74.97;103107.78;5075391;27;45505;-68
2022/01/11 20:34:43;;;;;;;;;77.00;59.00;;;;;2.45;74.43;103113.97;5070675;28;45590;-70
2022/01/11 20:37:11;;;;;;;;;80.33;58.00;;;;;2.46;74.33;103114.06;5074888;28;45371;-69
2022/01/11 20:39:40;;;;;;;;;73.00;54.00;;;;;2.50;75.12;103129.03;5077572;28;45919;-68
2022/01/11 20:42:11;;;;;;;;;73.00;54.33;;;;;2.60;74.89;103128.03;5075109;28;45553;-68
2022/01/11 20:44:46;;;;;;;;;75.67;59.00;;;;;2.56;74.55;103120.81;5075183;28;45548;-69
2022/01/11 20:47:14;;;;;;;;;74.00;56.33;;;;;2.49;74.83;103103.97;5057300;28;45592;-69
2022/01/11 20:49:40;;;;;;;;;72.00;56.33;;;;;2.70;74.71;103140.81;5076976;28;45496;-69
2022/01/11 20:54:38;;;;;;;;;71.67;55.00;;;;;2.63;73.81;103114.41;5073808;28;45884;-68
2022/01/11 20:57:05;;;;;;;;;70.00;53.00;;;;;2.84;73.29;103138.34;5073159;28;45560;-67
2022/01/11 20:59:33;;;;;;;;;74.00;56.00;;;;;2.74;73.15;103126.44;5074731;27;46112;-69
2022/01/11 21:01:59;;;;;;;;;79.67;58.00;;;;;2.85;73.00;103148.81;5074548;28;45371;-69
2022/01/11 21:04:25;;;;;;;;;74.33;56.00;;;;;2.72;73.23;103133.19;5060920;27;45489;-68
2022/01/11 21:06:51;;;;;;;;;76.67;57.00;;;;;2.80;73.93;103125.97;5079214;27;45595;-68
2022/01/11 21:09:18;;;;;;;;;72.00;54.67;;;;;2.84;73.68;103134.06;5078041;28;46064;-68
2022/01/11 21:11:45;;;;;;;;;77.67;57.33;;;;;2.48;72.76;103086.63;5060559;28;45527;-68
2022/01/11 21:14:12;;;;;;;;;74.33;57.00;;;;;2.70;73.02;103127.88;5076915;28;45704;-67
2022/01/11 21:22:08;;;;;;;;;80.33;59.33;;;;;2.60;73.34;103107.31;5072515;28;45698;-69
2022/01/11 21:24:33;;;;;;;;;76.33;57.00;;;;;2.66;72.72;103123.31;5074277;28;45338;-67
2022/01/11 21:27:00;;;;;;;;;81.33;61.33;;;;;2.56;72.97;103110.47;5074782;28;45430;-67
2022/01/11 21:29:26;;;;;;;;;74.67;56.33;;;;;2.41;73.21;103119.72;5073956;28;46108;-69
2022/01/11 21:31:52;;;;;;;;;72.33;55.00;;;;;2.51;73.26;103136.00;5078722;28;45339;-68
2022/01/11 21:34:19;;;;;;;;;76.33;58.00;;;;;2.54;73.12;103136.25;5072307;27;45754;-69
2022/01/11 21:36:46;;;;;;;;;79.67;58.00;;;;;2.54;73.25;103145.69;5075006;28;45498;-67
2022/01/11 21:39:14;;;;;;;;;76.67;56.00;;;;;2.37;73.35;103130.59;5074429;28;45442;-68
2022/01/11 21:41:41;;;;;;;;;74.00;54.67;;;;;2.41;73.54;103145.56;5075178;28;45515;-68
2022/01/11 21:44:15;;;;;;;;;78.00;58.33;;;;;2.47;73.87;103146.94;5070235;28;45592;-68
2022/01/11 21:46:41;;;;;;;;;77.33;59.00;;;;;2.40;73.33;103138.63;5059666;28;45515;-70
2022/01/11 21:49:07;;;;;;;;;75.00;57.67;;;;;2.08;74.40;103112.16;5078054;27;46068;-70
2022/01/11 21:51:33;;;;;;;;;73.00;55.33;;;;;1.92;74.97;103101.44;5058286;28;45528;-69
2022/01/11 21:53:59;;;;;;;;;75.67;56.00;;;;;2.18;73.92;103160.25;5074569;28;45999;-67
2022/01/11 21:56:24;;;;;;;;;77.00;56.67;;;;;2.20;74.25;103160.38;5075291;28;45441;-68
2022/01/11 21:58:50;;;;;;;;;76.67;56.00;;;;;1.89;74.05;103124.47;5077798;27;45522;-70
2022/01/11 22:01:16;;;;;;;;;76.67;56.67;;;;;2.10;74.85;103164.88;5055537;28;45811;-69
2022/01/11 22:03:48;;;;;;;;;78.33;58.33;;;;;1.84;74.43;103138.75;5074558;28;45410;-71
2022/01/11 22:06:13;;;;;;;;;76.67;57.67;;;;;1.63;75.31;103151.81;5078264;28;45406;-68
2022/01/11 22:08:40;;;;;;;;;78.00;59.67;;;;;1.77;75.71;103173.53;5075697;28;45449;-67
2022/01/11 22:11:06;;;;;;;;;79.67;58.33;;;;;1.60;76.13;103145.53;5072964;28;45532;-67
2022/01/11 22:13:45;;;;;;;;;90.33;67.67;;;;;1.43;75.95;103121.88;5073963;28;45496;-69
2022/01/11 22:16:38;;;;;;;;;79.00;59.67;;;;;1.41;75.53;103166.44;5067086;28;46083;-67
2022/01/11 22:19:03;;;;;;;;;81.00;60.00;;;;;1.38;76.67;103169.69;5071566;27;46384;-70
2022/01/11 22:21:32;;;;;;;;;79.67;59.33;;;;;1.56;76.14;103177.94;5060392;27;45687;-72
2022/01/11 22:23:58;;;;;;;;;85.33;67.00;;;;;1.60;76.26;103174.81;5054739;28;45731;-67
2022/01/11 22:26:23;;;;;;;;;83.33;60.67;;;;;1.46;76.06;103155.66;5057439;28;45413;-71
2022/01/11 22:28:49;;;;;;;;;82.67;61.67;;;;;1.69;76.30;103177.22;5075969;28;46004;-69
2022/01/11 22:31:16;;;;;;;;;82.00;60.33;;;;;1.73;75.71;103176.66;5071901;28;45515;-69
2022/01/11 22:33:41;;;;;;;;;81.67;64.67;;;;;1.72;75.88;103186.91;5073374;28;45949;-69
2022/01/11 22:36:10;;;;;;;;;84.33;63.67;;;;;1.79;76.00;103187.50;5071814;28;45557;-70
2022/01/11 22:38:36;;;;;;;;;84.00;65.33;;;;;1.69;75.91;103164.31;5075334;28;45390;-73
2022/01/11 22:41:02;;;;;;;;;81.33;64.67;;;;;1.60;75.94;103180.00;5071678;28;45599;-69
2022/01/11 22:43:28;;;;;;;;;84.33;61.33;;;;;1.69;75.70;103196.22;5067194;28;45535;-68
2022/01/11 22:45:56;;;;;;;;;78.67;55.67;;;;;1.60;75.86;103176.53;5067991;28;45587;-69
2022/01/11 22:48:26;;;;;;;;;84.33;62.67;;;;;1.29;76.07;103160.31;5071399;28;46038;-69
2022/01/11 22:51:23;;;;;;;;;80.00;61.33;;;;;1.40;76.55;103195.59;5065003;28;45537;-70
2022/01/11 22:53:49;;;;;;;;;76.67;54.67;;;;;1.27;76.73;103135.25;5071052;27;45508;-70
2022/01/11 22:56:14;;;;;;;;;80.33;58.00;;;;;1.19;76.10;103153.53;5066269;28;45568;-69
2022/01/11 22:58:40;;;;;;;;;80.00;59.67;;;;;1.08;76.58;103147.50;5053077;28;45882;-69
2022/01/11 23:01:18;;;;;;;;;83.33;61.33;;;;;1.35;76.67;103184.03;5071734;28;45524;-69
2022/01/11 23:03:49;;;;;;;;;79.00;57.33;;;;;1.49;77.20;103214.41;5072421;28;45430;-70
2022/01/11 23:06:17;;;;;;;;;81.67;59.00;;;;;1.53;76.37;103207.81;5057328;28;45496;-69
2022/01/11 23:08:44;;;;;;;;;73.33;55.67;;;;;1.48;75.58;103210.03;5053567;28;48140;-70
2022/01/11 23:11:17;;;;;;;;;75.67;54.00;;;;;1.39;76.76;103180.91;5072585;28;45923;-70
2022/01/11 23:14:48;;;;;;;;;70.33;53.00;;;;;1.67;82.00;103184.84;5074836;28;45473;-69
2022/01/11 23:16:31;;;;;;;;;69.67;53.00;;;;;2.18;76.46;103217.16;5072817;27;45601;-69
2022/01/11 23:19:01;;;;;;;;;73.33;53.67;;;;;2.33;75.12;103217.44;5072688;28;46232;-68
2022/01/11 23:21:28;;;;;;;;;73.00;55.33;;;;;2.30;74.92;103224.94;5072811;28;45920;-67
2022/01/11 23:24:06;;;;;;;;;75.33;55.67;;;;;2.12;73.99;103189.16;5071003;28;45519;-67
2022/01/11 23:26:33;;;;;;;;;74.67;55.00;;;;;2.23;73.90;103213.25;5060546;28;45544;-68
2022/01/11 23:29:01;;;;;;;;;76.00;54.67;;;;;2.24;73.99;103220.22;5057900;28;45848;-71
2022/01/11 23:31:35;;;;;;;;;75.67;54.33;;;;;2.22;73.61;103216.59;5064749;28;46066;-68
2022/01/11 23:34:05;;;;;;;;;72.33;55.67;;;;;2.19;73.27;103213.78;5061891;27;46817;-68
2022/01/11 23:36:35;;;;;;;;;69.00;50.33;;;;;2.22;73.63;103207.94;5056240;28;45909;-68
2022/01/11 23:44:50;;;;;;;;;79.33;59.00;;;;;2.21;73.63;103207.06;5067673;28;45813;-68
2022/01/11 23:47:16;;;;;;;;;68.33;51.33;;;;;2.18;73.51;103216.25;5074518;28;45458;-67
2022/01/11 23:49:41;;;;;;;;;77.33;57.00;;;;;2.12;74.38;103215.00;5061001;28;46087;-69
2022/01/11 23:52:08;;;;;;;;;72.67;54.33;;;;;2.12;74.78;103215.00;5059789;28;45615;-69
2022/01/11 23:54:49;;;;;;;;;73.67;54.33;;;;;2.11;73.99;103223.56;5077052;28;45426;-69
2022/01/11 23:57:15;;;;;;;;;75.00;55.67;;;;;2.25;74.39;103227.16;5095462;27;45725;-68
2022/01/11 23:59:41;;;;;;;;;77.33;56.33;;;;;2.19;73.54;103220.66;5079178;28;46351;-70
